sensor_id;sensor_type;location;lat;lon;timestamp;P1;durP1;ratioP1;P2;durP2;ratioP2
76073;SDS011;64776;42.636;24.358;2024-01-07T00:00:18;8.23;;;2.72;;
76073;SDS011;64776;42.636;24.358;2024-01-07T00:03:20;5.25;;;2.00;;
76073;SDS011;64776;42.636;24.358;2024-01-07T00:06:21;6.85;;;2.05;;
76073;SDS011;64776;42.636;24.358;2024-01-07T00:09:22;8.68;;;2.60;;
76073;SDS011;64776;42.636;24.358;2024-01-07T00:12:22;8.57;;;1.90;;
76073;SDS011;64776;42.636;24.358;2024-01-07T00:15:23;6.18;;;1.85;;
76073;SDS011;64776;42.636;24.358;2024-01-07T00:18:26;8.90;;;3.40;;
76073;SDS011;64776;42.636;24.358;2024-01-07T00:21:26;8.52;;;2.97;;
76073;SDS011;64776;42.636;24.358;2024-01-07T00:24:27;7.47;;;2.10;;
76073;SDS011;64776;42.636;24.358;2024-01-07T00:27:28;6.82;;;1.60;;
76073;SDS011;64776;42.636;24.358;2024-01-07T00:30:29;8.25;;;3.47;;
76073;SDS011;64776;42.636;24.358;2024-01-07T00:33:31;11.35;;;3.70;;
76073;SDS011;64776;42.636;24.358;2024-01-07T00:36:32;7.43;;;2.55;;
76073;SDS011;64776;42.636;24.358;2024-01-07T00:39:33;12.32;;;2.85;;
76073;SDS011;64776;42.636;24.358;2024-01-07T00:42:33;5.70;;;2.13;;
76073;SDS011;64776;42.636;24.358;2024-01-07T00:45:34;7.47;;;3.10;;
76073;SDS011;64776;42.636;24.358;2024-01-07T00:48:36;9.05;;;2.55;;
76073;SDS011;64776;42.636;24.358;2024-01-07T00:51:37;7.03;;;2.08;;
76073;SDS011;64776;42.636;24.358;2024-01-07T00:54:38;8.90;;;2.67;;
76073;SDS011;64776;42.636;24.358;2024-01-07T00:57:38;10.63;;;3.95;;
76073;SDS011;64776;42.636;24.358;2024-01-07T01:00:39;9.70;;;3.42;;
76073;SDS011;64776;42.636;24.358;2024-01-07T01:03:41;6.40;;;2.13;;
76073;SDS011;64776;42.636;24.358;2024-01-07T01:06:42;4.82;;;1.42;;
76073;SDS011;64776;42.636;24.358;2024-01-07T01:09:43;9.18;;;2.22;;
76073;SDS011;64776;42.636;24.358;2024-01-07T01:12:44;7.93;;;2.42;;
76073;SDS011;64776;42.636;24.358;2024-01-07T01:15:44;7.15;;;2.30;;
76073;SDS011;64776;42.636;24.358;2024-01-07T01:18:47;7.45;;;1.65;;
76073;SDS011;64776;42.636;24.358;2024-01-07T01:21:47;7.07;;;2.40;;
76073;SDS011;64776;42.636;24.358;2024-01-07T01:24:48;8.82;;;2.55;;
76073;SDS011;64776;42.636;24.358;2024-01-07T01:27:49;5.00;;;1.80;;
76073;SDS011;64776;42.636;24.358;2024-01-07T01:30:50;8.50;;;2.28;;
76073;SDS011;64776;42.636;24.358;2024-01-07T01:33:52;8.63;;;2.67;;
76073;SDS011;64776;42.636;24.358;2024-01-07T01:36:52;9.73;;;2.47;;
76073;SDS011;64776;42.636;24.358;2024-01-07T01:39:53;8.20;;;2.42;;
76073;SDS011;64776;42.636;24.358;2024-01-07T01:42:54;11.80;;;2.53;;
76073;SDS011;64776;42.636;24.358;2024-01-07T01:45:55;5.15;;;1.83;;
76073;SDS011;64776;42.636;24.358;2024-01-07T01:48:58;11.93;;;3.22;;
76073;SDS011;64776;42.636;24.358;2024-01-07T01:51:59;7.07;;;2.08;;
76073;SDS011;64776;42.636;24.358;2024-01-07T01:55:00;3.55;;;1.08;;
76073;SDS011;64776;42.636;24.358;2024-01-07T01:58:01;6.00;;;1.17;;
76073;SDS011;64776;42.636;24.358;2024-01-07T02:01:03;5.65;;;1.77;;
76073;SDS011;64776;42.636;24.358;2024-01-07T02:04:05;6.60;;;2.38;;
76073;SDS011;64776;42.636;24.358;2024-01-07T02:07:06;5.93;;;2.28;;
76073;SDS011;64776;42.636;24.358;2024-01-07T02:10:07;7.57;;;1.88;;
76073;SDS011;64776;42.636;24.358;2024-01-07T02:13:08;7.75;;;2.30;;
76073;SDS011;64776;42.636;24.358;2024-01-07T02:16:09;5.65;;;1.77;;
76073;SDS011;64776;42.636;24.358;2024-01-07T02:19:11;11.50;;;2.47;;
76073;SDS011;64776;42.636;24.358;2024-01-07T02:22:12;6.68;;;1.67;;
76073;SDS011;64776;42.636;24.358;2024-01-07T02:25:14;9.25;;;2.00;;
76073;SDS011;64776;42.636;24.358;2024-01-07T02:28:15;9.77;;;2.85;;
76073;SDS011;64776;42.636;24.358;2024-01-07T02:31:16;7.60;;;2.03;;
76073;SDS011;64776;42.636;24.358;2024-01-07T02:34:17;7.00;;;1.90;;
76073;SDS011;64776;42.636;24.358;2024-01-07T02:37:17;5.72;;;2.45;;
76073;SDS011;64776;42.636;24.358;2024-01-07T02:40:20;4.65;;;1.67;;
76073;SDS011;64776;42.636;24.358;2024-01-07T02:43:21;5.55;;;1.33;;
76073;SDS011;64776;42.636;24.358;2024-01-07T02:46:23;8.45;;;1.95;;
76073;SDS011;64776;42.636;24.358;2024-01-07T02:49:24;6.95;;;1.45;;
76073;SDS011;64776;42.636;24.358;2024-01-07T02:52:25;6.03;;;1.67;;
76073;SDS011;64776;42.636;24.358;2024-01-07T02:55:27;5.15;;;1.05;;
76073;SDS011;64776;42.636;24.358;2024-01-07T02:58:28;5.13;;;0.95;;
76073;SDS011;64776;42.636;24.358;2024-01-07T03:01:28;3.67;;;1.05;;
76073;SDS011;64776;42.636;24.358;2024-01-07T03:04:29;5.28;;;1.48;;
76073;SDS011;64776;42.636;24.358;2024-01-07T03:07:30;3.88;;;1.02;;
76073;SDS011;64776;42.636;24.358;2024-01-07T03:10:32;2.33;;;0.60;;
76073;SDS011;64776;42.636;24.358;2024-01-07T03:13:33;30.35;;;11.25;;
76073;SDS011;64776;42.636;24.358;2024-01-07T03:16:34;31.90;;;13.18;;
76073;SDS011;64776;42.636;24.358;2024-01-07T03:19:34;41.20;;;16.88;;
76073;SDS011;64776;42.636;24.358;2024-01-07T03:22:35;16.10;;;5.50;;
76073;SDS011;64776;42.636;24.358;2024-01-07T03:25:37;19.38;;;6.90;;
76073;SDS011;64776;42.636;24.358;2024-01-07T03:28:38;19.25;;;6.65;;
76073;SDS011;64776;42.636;24.358;2024-01-07T03:31:39;31.75;;;13.02;;
76073;SDS011;64776;42.636;24.358;2024-01-07T03:34:39;13.55;;;5.63;;
76073;SDS011;64776;42.636;24.358;2024-01-07T03:37:40;9.65;;;3.13;;
76073;SDS011;64776;42.636;24.358;2024-01-07T03:40:42;4.32;;;1.73;;
76073;SDS011;64776;42.636;24.358;2024-01-07T03:43:43;5.35;;;2.22;;
76073;SDS011;64776;42.636;24.358;2024-01-07T03:46:44;4.97;;;0.90;;
76073;SDS011;64776;42.636;24.358;2024-01-07T03:49:45;5.93;;;1.20;;
76073;SDS011;64776;42.636;24.358;2024-01-07T03:52:45;4.80;;;1.55;;
76073;SDS011;64776;42.636;24.358;2024-01-07T03:55:48;10.95;;;3.92;;
76073;SDS011;64776;42.636;24.358;2024-01-07T03:58:48;5.00;;;1.17;;
76073;SDS011;64776;42.636;24.358;2024-01-07T04:01:49;6.10;;;1.45;;
76073;SDS011;64776;42.636;24.358;2024-01-07T04:04:50;6.15;;;1.63;;
76073;SDS011;64776;42.636;24.358;2024-01-07T04:07:51;5.93;;;2.53;;
76073;SDS011;64776;42.636;24.358;2024-01-07T04:10:53;2.92;;;0.63;;
76073;SDS011;64776;42.636;24.358;2024-01-07T04:13:53;6.22;;;1.40;;
76073;SDS011;64776;42.636;24.358;2024-01-07T04:16:54;6.45;;;1.20;;
76073;SDS011;64776;42.636;24.358;2024-01-07T04:19:55;5.50;;;1.77;;
76073;SDS011;64776;42.636;24.358;2024-01-07T04:22:56;7.03;;;2.78;;
76073;SDS011;64776;42.636;24.358;2024-01-07T04:25:58;10.30;;;4.63;;
76073;SDS011;64776;42.636;24.358;2024-01-07T04:28:59;8.07;;;2.83;;
76073;SDS011;64776;42.636;24.358;2024-01-07T04:32:00;10.90;;;3.10;;
76073;SDS011;64776;42.636;24.358;2024-01-07T04:35:00;14.52;;;4.57;;
76073;SDS011;64776;42.636;24.358;2024-01-07T04:38:01;12.57;;;4.95;;
76073;SDS011;64776;42.636;24.358;2024-01-07T04:41:03;14.43;;;5.18;;
76073;SDS011;64776;42.636;24.358;2024-01-07T04:44:04;7.60;;;2.50;;
76073;SDS011;64776;42.636;24.358;2024-01-07T04:47:05;8.95;;;3.08;;
76073;SDS011;64776;42.636;24.358;2024-01-07T04:50:23;8.80;;;4.50;;
76073;SDS011;64776;42.636;24.358;2024-01-07T04:53:24;10.57;;;4.57;;
76073;SDS011;64776;42.636;24.358;2024-01-07T04:56:26;5.25;;;1.90;;
76073;SDS011;64776;42.636;24.358;2024-01-07T04:59:27;14.05;;;5.45;;
76073;SDS011;64776;42.636;24.358;2024-01-07T05:02:27;11.45;;;3.92;;
76073;SDS011;64776;42.636;24.358;2024-01-07T05:05:28;7.72;;;2.90;;
76073;SDS011;64776;42.636;24.358;2024-01-07T05:08:29;6.50;;;1.98;;
76073;SDS011;64776;42.636;24.358;2024-01-07T05:11:31;9.95;;;4.28;;
76073;SDS011;64776;42.636;24.358;2024-01-07T05:14:32;7.03;;;2.55;;
76073;SDS011;64776;42.636;24.358;2024-01-07T05:17:33;8.95;;;2.78;;
76073;SDS011;64776;42.636;24.358;2024-01-07T05:20:33;4.50;;;1.30;;
76073;SDS011;64776;42.636;24.358;2024-01-07T05:23:34;7.15;;;1.98;;
76073;SDS011;64776;42.636;24.358;2024-01-07T05:26:39;7.57;;;3.00;;
76073;SDS011;64776;42.636;24.358;2024-01-07T05:29:41;10.48;;;3.55;;
76073;SDS011;64776;42.636;24.358;2024-01-07T05:32:45;7.85;;;3.17;;
76073;SDS011;64776;42.636;24.358;2024-01-07T05:35:45;7.68;;;3.45;;
76073;SDS011;64776;42.636;24.358;2024-01-07T05:38:46;5.97;;;2.20;;
76073;SDS011;64776;42.636;24.358;2024-01-07T05:41:48;16.58;;;5.30;;
76073;SDS011;64776;42.636;24.358;2024-01-07T05:44:49;14.13;;;5.80;;
76073;SDS011;64776;42.636;24.358;2024-01-07T05:47:50;13.98;;;6.15;;
76073;SDS011;64776;42.636;24.358;2024-01-07T05:50:51;10.05;;;3.63;;
76073;SDS011;64776;42.636;24.358;2024-01-07T05:53:51;10.95;;;4.70;;
76073;SDS011;64776;42.636;24.358;2024-01-07T05:56:54;14.95;;;5.43;;
76073;SDS011;64776;42.636;24.358;2024-01-07T05:59:55;10.80;;;4.90;;
76073;SDS011;64776;42.636;24.358;2024-01-07T06:02:56;12.70;;;5.60;;
76073;SDS011;64776;42.636;24.358;2024-01-07T06:05:57;6.35;;;2.72;;
76073;SDS011;64776;42.636;24.358;2024-01-07T06:08:59;10.57;;;3.63;;
76073;SDS011;64776;42.636;24.358;2024-01-07T06:12:01;7.28;;;3.70;;
76073;SDS011;64776;42.636;24.358;2024-01-07T06:15:02;10.77;;;3.70;;
76073;SDS011;64776;42.636;24.358;2024-01-07T06:18:03;16.20;;;6.38;;
76073;SDS011;64776;42.636;24.358;2024-01-07T06:21:04;14.60;;;5.15;;
76073;SDS011;64776;42.636;24.358;2024-01-07T06:24:07;10.73;;;5.43;;
76073;SDS011;64776;42.636;24.358;2024-01-07T06:27:09;14.73;;;5.05;;
76073;SDS011;64776;42.636;24.358;2024-01-07T06:30:10;9.88;;;4.05;;
76073;SDS011;64776;42.636;24.358;2024-01-07T06:33:11;18.20;;;8.25;;
76073;SDS011;64776;42.636;24.358;2024-01-07T06:36:12;20.40;;;8.20;;
76073;SDS011;64776;42.636;24.358;2024-01-07T06:39:13;18.23;;;7.28;;
76073;SDS011;64776;42.636;24.358;2024-01-07T06:42:15;14.70;;;6.65;;
76073;SDS011;64776;42.636;24.358;2024-01-07T06:45:18;14.45;;;5.68;;
76073;SDS011;64776;42.636;24.358;2024-01-07T06:48:19;11.43;;;5.22;;
76073;SDS011;64776;42.636;24.358;2024-01-07T06:51:20;24.17;;;9.15;;
76073;SDS011;64776;42.636;24.358;2024-01-07T06:54:22;18.98;;;8.13;;
76073;SDS011;64776;42.636;24.358;2024-01-07T06:57:25;20.60;;;9.07;;
76073;SDS011;64776;42.636;24.358;2024-01-07T07:00:25;15.15;;;5.20;;
76073;SDS011;64776;42.636;24.358;2024-01-07T07:03:26;17.77;;;6.55;;
76073;SDS011;64776;42.636;24.358;2024-01-07T07:06:27;24.48;;;12.65;;
76073;SDS011;64776;42.636;24.358;2024-01-07T07:09:28;16.00;;;8.55;;
76073;SDS011;64776;42.636;24.358;2024-01-07T07:12:30;40.75;;;17.08;;
76073;SDS011;64776;42.636;24.358;2024-01-07T07:15:30;39.05;;;19.65;;
76073;SDS011;64776;42.636;24.358;2024-01-07T07:18:31;32.45;;;15.68;;
76073;SDS011;64776;42.636;24.358;2024-01-07T07:21:32;38.95;;;14.55;;
76073;SDS011;64776;42.636;24.358;2024-01-07T07:24:33;43.65;;;18.27;;
76073;SDS011;64776;42.636;24.358;2024-01-07T07:27:35;20.30;;;10.68;;
76073;SDS011;64776;42.636;24.358;2024-01-07T07:30:37;27.23;;;11.73;;
76073;SDS011;64776;42.636;24.358;2024-01-07T07:33:40;17.83;;;8.18;;
76073;SDS011;64776;42.636;24.358;2024-01-07T07:36:40;20.05;;;8.88;;
76073;SDS011;64776;42.636;24.358;2024-01-07T07:39:41;17.55;;;8.20;;
76073;SDS011;64776;42.636;24.358;2024-01-07T07:42:43;11.48;;;4.85;;
76073;SDS011;64776;42.636;24.358;2024-01-07T07:45:44;21.88;;;9.60;;
76073;SDS011;64776;42.636;24.358;2024-01-07T07:48:44;22.85;;;12.45;;
76073;SDS011;64776;42.636;24.358;2024-01-07T07:51:46;21.05;;;10.43;;
76073;SDS011;64776;42.636;24.358;2024-01-07T07:54:46;25.02;;;10.75;;
76073;SDS011;64776;42.636;24.358;2024-01-07T07:57:49;28.83;;;12.50;;
76073;SDS011;64776;42.636;24.358;2024-01-07T08:00:49;24.45;;;9.38;;
76073;SDS011;64776;42.636;24.358;2024-01-07T08:03:50;19.58;;;9.43;;
76073;SDS011;64776;42.636;24.358;2024-01-07T08:06:51;16.13;;;7.18;;
76073;SDS011;64776;42.636;24.358;2024-01-07T08:09:52;21.30;;;9.18;;
76073;SDS011;64776;42.636;24.358;2024-01-07T08:12:54;20.92;;;10.48;;
76073;SDS011;64776;42.636;24.358;2024-01-07T08:15:54;20.80;;;9.77;;
76073;SDS011;64776;42.636;24.358;2024-01-07T08:18:55;24.88;;;10.85;;
76073;SDS011;64776;42.636;24.358;2024-01-07T08:21:56;15.07;;;6.53;;
76073;SDS011;64776;42.636;24.358;2024-01-07T08:24:56;23.63;;;10.07;;
76073;SDS011;64776;42.636;24.358;2024-01-07T08:27:59;22.85;;;9.95;;
76073;SDS011;64776;42.636;24.358;2024-01-07T08:31:00;22.50;;;10.40;;
76073;SDS011;64776;42.636;24.358;2024-01-07T08:34:00;31.83;;;15.18;;
76073;SDS011;64776;42.636;24.358;2024-01-07T08:37:01;46.78;;;20.13;;
76073;SDS011;64776;42.636;24.358;2024-01-07T08:40:02;47.67;;;20.85;;
76073;SDS011;64776;42.636;24.358;2024-01-07T08:43:05;23.55;;;10.63;;
76073;SDS011;64776;42.636;24.358;2024-01-07T08:46:06;12.55;;;4.80;;
76073;SDS011;64776;42.636;24.358;2024-01-07T08:49:06;10.43;;;4.38;;
76073;SDS011;64776;42.636;24.358;2024-01-07T08:52:07;12.68;;;4.57;;
76073;SDS011;64776;42.636;24.358;2024-01-07T08:55:08;17.27;;;6.68;;
76073;SDS011;64776;42.636;24.358;2024-01-07T08:58:10;32.95;;;11.25;;
76073;SDS011;64776;42.636;24.358;2024-01-07T09:01:11;24.52;;;8.13;;
76073;SDS011;64776;42.636;24.358;2024-01-07T09:04:12;18.25;;;7.15;;
76073;SDS011;64776;42.636;24.358;2024-01-07T09:07:12;25.75;;;9.93;;
76073;SDS011;64776;42.636;24.358;2024-01-07T09:10:13;22.48;;;9.95;;
76073;SDS011;64776;42.636;24.358;2024-01-07T09:13:16;36.15;;;15.65;;
76073;SDS011;64776;42.636;24.358;2024-01-07T09:16:17;22.48;;;9.80;;
76073;SDS011;64776;42.636;24.358;2024-01-07T09:19:17;38.53;;;14.63;;
76073;SDS011;64776;42.636;24.358;2024-01-07T09:22:18;23.38;;;7.60;;
76073;SDS011;64776;42.636;24.358;2024-01-07T09:25:19;15.40;;;5.10;;
76073;SDS011;64776;42.636;24.358;2024-01-07T09:28:21;12.07;;;4.25;;
76073;SDS011;64776;42.636;24.358;2024-01-07T09:31:22;11.73;;;4.90;;
76073;SDS011;64776;42.636;24.358;2024-01-07T09:34:22;17.83;;;5.97;;
76073;SDS011;64776;42.636;24.358;2024-01-07T09:37:23;20.25;;;6.53;;
76073;SDS011;64776;42.636;24.358;2024-01-07T09:40:24;14.07;;;5.00;;
76073;SDS011;64776;42.636;24.358;2024-01-07T09:43:26;21.58;;;7.13;;
76073;SDS011;64776;42.636;24.358;2024-01-07T09:49:29;33.55;;;11.82;;
76073;SDS011;64776;42.636;24.358;2024-01-07T09:52:30;14.73;;;5.65;;
76073;SDS011;64776;42.636;24.358;2024-01-07T09:55:33;13.10;;;4.45;;
76073;SDS011;64776;42.636;24.358;2024-01-07T09:58:39;11.98;;;5.43;;
76073;SDS011;64776;42.636;24.358;2024-01-07T10:01:40;11.75;;;4.97;;
76073;SDS011;64776;42.636;24.358;2024-01-07T10:04:41;10.57;;;4.32;;
76073;SDS011;64776;42.636;24.358;2024-01-07T10:07:42;14.70;;;5.40;;
76073;SDS011;64776;42.636;24.358;2024-01-07T10:10:43;13.48;;;4.70;;
76073;SDS011;64776;42.636;24.358;2024-01-07T10:13:46;9.13;;;3.42;;
76073;SDS011;64776;42.636;24.358;2024-01-07T10:16:47;38.80;;;13.75;;
76073;SDS011;64776;42.636;24.358;2024-01-07T10:19:48;9.48;;;3.45;;
76073;SDS011;64776;42.636;24.358;2024-01-07T10:22:49;11.82;;;4.05;;
76073;SDS011;64776;42.636;24.358;2024-01-07T10:25:50;12.63;;;3.85;;
76073;SDS011;64776;42.636;24.358;2024-01-07T10:28:53;7.95;;;2.90;;
76073;SDS011;64776;42.636;24.358;2024-01-07T10:31:55;4.50;;;1.90;;
76073;SDS011;64776;42.636;24.358;2024-01-07T10:34:57;15.35;;;3.72;;
76073;SDS011;64776;42.636;24.358;2024-01-07T10:38:03;11.40;;;3.72;;
76073;SDS011;64776;42.636;24.358;2024-01-07T10:41:04;17.55;;;6.72;;
76073;SDS011;64776;42.636;24.358;2024-01-07T10:44:09;9.25;;;3.78;;
76073;SDS011;64776;42.636;24.358;2024-01-07T10:47:10;18.10;;;7.25;;
76073;SDS011;64776;42.636;24.358;2024-01-07T10:50:12;10.02;;;4.82;;
76073;SDS011;64776;42.636;24.358;2024-01-07T10:53:17;10.52;;;3.97;;
76073;SDS011;64776;42.636;24.358;2024-01-07T10:59:24;11.15;;;3.88;;
76073;SDS011;64776;42.636;24.358;2024-01-07T11:02:26;7.60;;;2.65;;
76073;SDS011;64776;42.636;24.358;2024-01-07T11:05:29;9.10;;;3.20;;
76073;SDS011;64776;42.636;24.358;2024-01-07T11:08:34;14.15;;;4.30;;
76073;SDS011;64776;42.636;24.358;2024-01-07T11:11:41;7.18;;;2.78;;
76073;SDS011;64776;42.636;24.358;2024-01-07T11:14:43;11.05;;;4.13;;
76073;SDS011;64776;42.636;24.358;2024-01-07T11:17:44;9.38;;;2.90;;
76073;SDS011;64776;42.636;24.358;2024-01-07T11:20:45;5.25;;;1.23;;
76073;SDS011;64776;42.636;24.358;2024-01-07T11:23:47;7.35;;;2.22;;
76073;SDS011;64776;42.636;24.358;2024-01-07T11:26:47;9.57;;;3.00;;
76073;SDS011;64776;42.636;24.358;2024-01-07T11:29:56;5.32;;;1.70;;
76073;SDS011;64776;42.636;24.358;2024-01-07T11:32:57;9.50;;;3.65;;
76073;SDS011;64776;42.636;24.358;2024-01-07T11:35:59;6.15;;;1.90;;
76073;SDS011;64776;42.636;24.358;2024-01-07T11:39:00;10.80;;;3.42;;
76073;SDS011;64776;42.636;24.358;2024-01-07T11:42:02;7.85;;;2.75;;
76073;SDS011;64776;42.636;24.358;2024-01-07T11:45:06;12.48;;;3.92;;
76073;SDS011;64776;42.636;24.358;2024-01-07T11:48:07;9.10;;;3.60;;
76073;SDS011;64776;42.636;24.358;2024-01-07T11:51:07;14.27;;;5.55;;
76073;SDS011;64776;42.636;24.358;2024-01-07T11:54:09;11.88;;;3.80;;
76073;SDS011;64776;42.636;24.358;2024-01-07T11:57:10;10.70;;;4.25;;
76073;SDS011;64776;42.636;24.358;2024-01-07T12:00:14;10.32;;;4.22;;
76073;SDS011;64776;42.636;24.358;2024-01-07T12:03:15;15.15;;;5.65;;
76073;SDS011;64776;42.636;24.358;2024-01-07T12:06:16;11.65;;;4.45;;
76073;SDS011;64776;42.636;24.358;2024-01-07T12:09:16;13.65;;;5.82;;
76073;SDS011;64776;42.636;24.358;2024-01-07T12:12:17;16.42;;;6.53;;
76073;SDS011;64776;42.636;24.358;2024-01-07T12:15:19;13.68;;;6.05;;
76073;SDS011;64776;42.636;24.358;2024-01-07T12:18:21;53.55;;;18.92;;
76073;SDS011;64776;42.636;24.358;2024-01-07T12:21:22;49.75;;;19.08;;
76073;SDS011;64776;42.636;24.358;2024-01-07T12:24:24;16.50;;;5.27;;
76073;SDS011;64776;42.636;24.358;2024-01-07T12:27:25;32.75;;;9.07;;
76073;SDS011;64776;42.636;24.358;2024-01-07T12:30:27;10.07;;;3.95;;
76073;SDS011;64776;42.636;24.358;2024-01-07T12:33:28;16.23;;;8.20;;
76073;SDS011;64776;42.636;24.358;2024-01-07T12:36:29;35.60;;;17.17;;
76073;SDS011;64776;42.636;24.358;2024-01-07T12:39:30;15.80;;;7.03;;
76073;SDS011;64776;42.636;24.358;2024-01-07T12:42:31;10.27;;;5.18;;
76073;SDS011;64776;42.636;24.358;2024-01-07T12:45:33;16.17;;;4.60;;
76073;SDS011;64776;42.636;24.358;2024-01-07T12:48:35;11.27;;;4.72;;
76073;SDS011;64776;42.636;24.358;2024-01-07T12:51:36;11.00;;;4.38;;
76073;SDS011;64776;42.636;24.358;2024-01-07T12:54:37;7.55;;;1.95;;
76073;SDS011;64776;42.636;24.358;2024-01-07T12:57:38;10.82;;;3.78;;
76073;SDS011;64776;42.636;24.358;2024-01-07T13:00:40;12.95;;;3.78;;
76073;SDS011;64776;42.636;24.358;2024-01-07T13:03:41;14.75;;;6.10;;
76073;SDS011;64776;42.636;24.358;2024-01-07T13:06:42;11.68;;;5.50;;
76073;SDS011;64776;42.636;24.358;2024-01-07T13:09:43;15.52;;;6.45;;
76073;SDS011;64776;42.636;24.358;2024-01-07T13:12:44;11.73;;;3.58;;
76073;SDS011;64776;42.636;24.358;2024-01-07T13:15:46;17.83;;;7.32;;
76073;SDS011;64776;42.636;24.358;2024-01-07T13:18:46;19.73;;;9.00;;
76073;SDS011;64776;42.636;24.358;2024-01-07T13:21:47;13.52;;;5.28;;
76073;SDS011;64776;42.636;24.358;2024-01-07T13:24:48;12.30;;;3.53;;
76073;SDS011;64776;42.636;24.358;2024-01-07T13:27:56;26.31;;;10.09;;
76073;SDS011;64776;42.636;24.358;2024-01-07T13:31:07;29.50;;;13.02;;
76073;SDS011;64776;42.636;24.358;2024-01-07T13:34:11;28.00;;;11.55;;
76073;SDS011;64776;42.636;24.358;2024-01-07T13:37:21;15.68;;;7.15;;
76073;SDS011;64776;42.636;24.358;2024-01-07T13:40:22;18.90;;;6.82;;
76073;SDS011;64776;42.636;24.358;2024-01-07T13:43:22;13.40;;;5.10;;
76073;SDS011;64776;42.636;24.358;2024-01-07T13:46:24;17.45;;;6.97;;
76073;SDS011;64776;42.636;24.358;2024-01-07T13:49:25;11.38;;;4.78;;
76073;SDS011;64776;42.636;24.358;2024-01-07T13:52:26;12.48;;;4.60;;
76073;SDS011;64776;42.636;24.358;2024-01-07T13:55:27;17.90;;;8.38;;
76073;SDS011;64776;42.636;24.358;2024-01-07T13:58:27;29.75;;;13.48;;
76073;SDS011;64776;42.636;24.358;2024-01-07T14:01:30;26.48;;;12.02;;
76073;SDS011;64776;42.636;24.358;2024-01-07T14:04:31;22.90;;;10.95;;
76073;SDS011;64776;42.636;24.358;2024-01-07T14:07:32;19.23;;;9.25;;
76073;SDS011;64776;42.636;24.358;2024-01-07T14:10:33;22.60;;;10.23;;
76073;SDS011;64776;42.636;24.358;2024-01-07T14:13:33;14.98;;;5.68;;
76073;SDS011;64776;42.636;24.358;2024-01-07T14:16:36;22.23;;;10.85;;
76073;SDS011;64776;42.636;24.358;2024-01-07T14:19:37;26.80;;;12.85;;
76073;SDS011;64776;42.636;24.358;2024-01-07T14:22:38;23.55;;;10.93;;
76073;SDS011;64776;42.636;24.358;2024-01-07T14:25:39;27.73;;;13.63;;
76073;SDS011;64776;42.636;24.358;2024-01-07T14:28:40;32.35;;;14.23;;
76073;SDS011;64776;42.636;24.358;2024-01-07T14:31:43;33.28;;;13.88;;
76073;SDS011;64776;42.636;24.358;2024-01-07T14:34:47;89.38;;;37.72;;
76073;SDS011;64776;42.636;24.358;2024-01-07T14:37:48;51.75;;;23.85;;
76073;SDS011;64776;42.636;24.358;2024-01-07T14:40:49;45.35;;;18.02;;
76073;SDS011;64776;42.636;24.358;2024-01-07T14:43:49;47.13;;;18.65;;
76073;SDS011;64776;42.636;24.358;2024-01-07T14:46:51;34.90;;;13.90;;
76073;SDS011;64776;42.636;24.358;2024-01-07T14:49:52;91.20;;;38.00;;
76073;SDS011;64776;42.636;24.358;2024-01-07T14:52:53;70.70;;;30.05;;
76073;SDS011;64776;42.636;24.358;2024-01-07T14:55:54;26.25;;;11.13;;
76073;SDS011;64776;42.636;24.358;2024-01-07T14:58:54;56.47;;;23.42;;
76073;SDS011;64776;42.636;24.358;2024-01-07T15:01:57;79.95;;;35.25;;
76073;SDS011;64776;42.636;24.358;2024-01-07T15:04:57;41.47;;;16.67;;
76073;SDS011;64776;42.636;24.358;2024-01-07T15:07:59;32.05;;;13.55;;
76073;SDS011;64776;42.636;24.358;2024-01-07T15:11:00;55.85;;;27.90;;
76073;SDS011;64776;42.636;24.358;2024-01-07T15:14:01;42.78;;;17.52;;
76073;SDS011;64776;42.636;24.358;2024-01-07T15:17:03;71.90;;;30.27;;
76073;SDS011;64776;42.636;24.358;2024-01-07T15:20:04;51.65;;;26.67;;
76073;SDS011;64776;42.636;24.358;2024-01-07T15:23:06;58.83;;;26.08;;
76073;SDS011;64776;42.636;24.358;2024-01-07T15:26:07;93.80;;;38.63;;
76073;SDS011;64776;42.636;24.358;2024-01-07T15:29:08;119.78;;;46.70;;
76073;SDS011;64776;42.636;24.358;2024-01-07T15:32:10;97.95;;;42.95;;
76073;SDS011;64776;42.636;24.358;2024-01-07T15:35:11;76.57;;;35.00;;
76073;SDS011;64776;42.636;24.358;2024-01-07T15:38:12;53.90;;;23.42;;
76073;SDS011;64776;42.636;24.358;2024-01-07T15:41:13;45.65;;;24.35;;
76073;SDS011;64776;42.636;24.358;2024-01-07T15:44:14;80.30;;;35.97;;
76073;SDS011;64776;42.636;24.358;2024-01-07T15:47:16;72.30;;;28.67;;
76073;SDS011;64776;42.636;24.358;2024-01-07T15:50:17;28.05;;;12.93;;
76073;SDS011;64776;42.636;24.358;2024-01-07T15:53:17;21.30;;;9.90;;
76073;SDS011;64776;42.636;24.358;2024-01-07T15:56:18;20.17;;;6.88;;
76073;SDS011;64776;42.636;24.358;2024-01-07T15:59:19;14.10;;;5.50;;
76073;SDS011;64776;42.636;24.358;2024-01-07T16:02:21;9.43;;;3.22;;
76073;SDS011;64776;42.636;24.358;2024-01-07T16:05:22;8.93;;;2.08;;
76073;SDS011;64776;42.636;24.358;2024-01-07T16:08:23;23.95;;;8.82;;
76073;SDS011;64776;42.636;24.358;2024-01-07T16:11:23;30.23;;;13.70;;
76073;SDS011;64776;42.636;24.358;2024-01-07T16:14:24;24.13;;;8.15;;
76073;SDS011;64776;42.636;24.358;2024-01-07T16:17:26;31.40;;;14.27;;
76073;SDS011;64776;42.636;24.358;2024-01-07T16:20:27;35.10;;;12.52;;
76073;SDS011;64776;42.636;24.358;2024-01-07T16:23:28;45.72;;;21.38;;
76073;SDS011;64776;42.636;24.358;2024-01-07T16:26:29;50.40;;;22.42;;
76073;SDS011;64776;42.636;24.358;2024-01-07T16:29:29;80.15;;;37.03;;
76073;SDS011;64776;42.636;24.358;2024-01-07T16:32:31;76.00;;;38.15;;
76073;SDS011;64776;42.636;24.358;2024-01-07T16:35:32;47.05;;;23.83;;
76073;SDS011;64776;42.636;24.358;2024-01-07T16:38:33;45.70;;;22.67;;
76073;SDS011;64776;42.636;24.358;2024-01-07T16:41:34;42.50;;;20.00;;
76073;SDS011;64776;42.636;24.358;2024-01-07T16:44:34;50.25;;;19.30;;
76073;SDS011;64776;42.636;24.358;2024-01-07T16:47:37;50.50;;;21.10;;
76073;SDS011;64776;42.636;24.358;2024-01-07T16:50:37;36.10;;;17.85;;
76073;SDS011;64776;42.636;24.358;2024-01-07T16:53:38;52.38;;;24.30;;
76073;SDS011;64776;42.636;24.358;2024-01-07T16:56:39;62.17;;;26.92;;
76073;SDS011;64776;42.636;24.358;2024-01-07T16:59:40;109.68;;;46.15;;
76073;SDS011;64776;42.636;24.358;2024-01-07T17:02:42;150.55;;;64.65;;
76073;SDS011;64776;42.636;24.358;2024-01-07T17:05:43;109.40;;;45.58;;
76073;SDS011;64776;42.636;24.358;2024-01-07T17:08:44;37.80;;;17.58;;
76073;SDS011;64776;42.636;24.358;2024-01-07T17:11:45;33.20;;;16.02;;
76073;SDS011;64776;42.636;24.358;2024-01-07T17:14:45;45.63;;;21.48;;
76073;SDS011;64776;42.636;24.358;2024-01-07T17:17:47;47.60;;;20.83;;
76073;SDS011;64776;42.636;24.358;2024-01-07T17:20:48;70.85;;;27.73;;
76073;SDS011;64776;42.636;24.358;2024-01-07T17:23:50;45.30;;;17.00;;
76073;SDS011;64776;42.636;24.358;2024-01-07T17:26:50;46.83;;;22.55;;
76073;SDS011;64776;42.636;24.358;2024-01-07T17:29:51;53.55;;;23.98;;
76073;SDS011;64776;42.636;24.358;2024-01-07T17:32:53;55.38;;;25.50;;
76073;SDS011;64776;42.636;24.358;2024-01-07T17:35:54;67.88;;;29.60;;
76073;SDS011;64776;42.636;24.358;2024-01-07T17:38:55;76.75;;;33.67;;
76073;SDS011;64776;42.636;24.358;2024-01-07T17:41:56;118.82;;;48.92;;
76073;SDS011;64776;42.636;24.358;2024-01-07T17:44:56;111.55;;;49.33;;